Aeroporto :
LOGIN :

Iscrizione | Disclaimer

   EN    FR    IT 

 










Sommario :    VFR   VFR Marginale   IFR   IFR Intensivo   IFR Molto Intensivo
Visibilità : 
Base nubi : 
>= 8 km
>= 3000ft
5 / 8 km
1000 / 3000 ft
1500m / 5 km
500 / 1000 ft
800 / 1500m
200 / 500 ft
< 800m
< 200 ft
Simboli :   Temporali  Nebbia  Neve Forte  Precipitazioni Forti  Vento > 20 kt
SIGMETs :   Varie  Temporali  Ghiacco  Turbolenza  Onda orograficha  Ceneri Vulcaniche






- Altitudine del aeroporto : 1789 ft
- Codice IATA : PRN


BKPR - Pristina

ULTIMO METAR :
  • 282230Z 29005KT 9999 FEW090 13/12 Q1015 NOSIG

METARs OBSOLETI :
  • 282200Z 32003KT 290V350 9999 FEW075 14/12 Q1016 NOSIG
  • 282130Z 33005KT 280V340 9999 FEW035TCU BKN070 15/12 Q1015 NOSIG
  • 282100Z 30007KT 9999 -SHRA FEW035TCU BKN050 15/12 Q1016 NOSIG
  • 282030Z 30003KT 270V350 9999 FEW045 BKN075 15/12 Q1016 NOSIG
  • 282000Z 32006KT 9999 FEW040 BKN060 15/12 Q1016 NOSIG
  • 281930Z 34006KT 9999 SCT070 15/11 Q1015 NOSIG
  • 281900Z 29006KT 9999 SCT067 16/11 Q1015 NOSIG
  • 281830Z 27003KT 190V320 9999 FEW040 SCT070 16/10 Q1015 NOSIG
  • 281800Z 27005KT 9999 SCT075 16/12 Q1014 NOSIG

TAF AMD TAF BKPR
Valido dal 28 a 20 ore il 29 a 18 ore UTC


281930Z 2820/2918 32007KT 9999 SCT040
PROB30
TEMPO 2820/2902 5000 -TSRA SCT030CB
TEMPO 2903/2906 3000 BR
TEMPO 2909/2918 VRB15G25KT 4000 TSRA SCT030CB



MetMap, La meteo Aeronautica in un colpo d'occhio ! - Copyright ORBIFLY Dicembre 2007 - Disclaimer

ORBIFLY MET'MAP TEAM :

Programmazione e sviluppo : Alexandra Zaïnal
Concezione : Baudouin d'Aumeries
Supporto tecnico e logistico : Manuel Goepfert
Aiuto : Marc-Olivier Méhu
Aiuto per la traduzione : Arnaldo La Scala




FONTI E CREDITI :

   NOAA